Meteo Giornale » Osservazioni meteo Italia » Genova-Sestri

ore: 16:20 - Osservazioni Meteo Genova-Sestri
Lat. 44° 25' N Lon. 8° 51' E Alt. 2 metri s.l.m.

poco_nuvoloso Europe/Rome

19 °C

Poco Nuvoloso

Temp. 24 Ore

14 °C

21 °C

Sud/Sud-Ovest

14.8 Km/h

Dew point 11 °C

Umidità 59 %

Visibilità  10 Km

Il sole sorge alle ore 06:32

Il sole tramonta alle ore 20:15

Data e Ora Cielo e Fenomeni T °C DP °C Um. % Pres. hPa Vis. km Vento km/h
Oggi h: 16:20 poco_nuvoloso Poco Nuvoloso 19 11 59 1026 10 S/SO 14.8
Oggi h: 15:50 nuvoloso Nuvoloso 19 8 48 1026 10 N 16.7
Oggi h: 15:20 nuvoloso Nuvoloso 19 8 48 1026 10 SO 22.2
Oggi h: 14:50 nuvoloso Nuvoloso 19 7 45 1027 10 SO 22.2
Oggi h: 14:20 nuvoloso Nuvoloso 19 8 48 1027 10 S/SO 20.3
Oggi h: 13:50 nuvoloso Nuvoloso 20 6 39 1027 10 SO 22.2
Oggi h: 13:20 nuvoloso Nuvoloso 20 7 42 1027 10 O/SO 25.9
Oggi h: 12:50 poco_nuvoloso Poco Nuvoloso 18 10 59 1027 10 SO 25.9
Oggi h: 12:20 poco_nuvoloso Poco Nuvoloso 19 8 48 1027 10 O/SO 16.7
Oggi h: 11:50 poco_nuvoloso Poco Nuvoloso 19 7 45 1028 10 O/SO 20.3
Oggi h: 11:20 poco_nuvoloso Poco Nuvoloso 19 8 48 1028 10 N 13
Oggi h: 10:50 sereno Sereno 18 9 55 1028 10 N 11.1
Oggi h: 10:20 sereno Sereno 19 6 42 1028 10 N 7.4
Oggi h: 09:50 sereno Sereno 20 3 32 1028 10 N/NE 14.8
Oggi h: 08:50 sereno Sereno 20 8 45 1028 10 NE 13
Oggi h: 08:20 sereno Sereno 17 4 41 1028 10 NE 13
Oggi h: 07:50 sereno Sereno 16 3 41 1027 10 NE 18.5
Oggi h: 07:20 sereno Sereno 16 3 41 1027 10 NE 20.3
Oggi h: 06:50 sereno Sereno 15 3 44 1026 10 NE 16.7
Oggi h: 06:20 sereno Sereno 14 3 47 1026 10 N 5.5
Oggi h: 05:50 sereno Sereno 15 1 38 1026 10 N 5.5
Oggi h: 05:20 sereno Sereno 16 1 36 1026 10 NE 14.8
Oggi h: 04:50 sereno Sereno 14 3 47 1026 10 N 5.5
Oggi h: 04:20 poco_nuvoloso Poco Nuvoloso 14 3 47 1026 10 N 5.5
Oggi h: 03:50 molto_nuvoloso Molto Nuvoloso 15 4 47 1025 10 N 5.5
Oggi h: 03:20 molto_nuvoloso Molto Nuvoloso 15 4 47 1025 10 N 5.5
Oggi h: 02:50 molto_nuvoloso Molto Nuvoloso 15 4 47 1025 10 N 5.5
Oggi h: 02:20 molto_nuvoloso Molto Nuvoloso 15 4 47 1025 10 N 5.5
Oggi h: 01:50 molto_nuvoloso Molto Nuvoloso 18 2 34 1025 10 N/NE 18.5
Oggi h: 01:20 molto_nuvoloso Molto Nuvoloso 18 2 34 1025 10 N/NE 18.5
Oggi h: 00:50 molto_nuvoloso Molto Nuvoloso 18 3 36 1025 10 N/NE 18.5
Oggi h: 00:20 molto_nuvoloso Molto Nuvoloso 18 3 36 1024 10 N/NE 11.1
Ieri h: 23:50 nuvoloso Nuvoloso 19 3 34 1024 10 N 22.2
Ieri h: 23:20 nuvoloso Nuvoloso 19 4 37 1024 10 N/NE 20.3
Ieri h: 22:50 nuvoloso Nuvoloso 19 5 39 1024 10 NE 13
Ieri h: 22:20 nuvoloso Nuvoloso 18 6 45 1024 10 E/NE 13
Ieri h: 21:50 nuvoloso Nuvoloso 20 4 34 1023 10 N/NE 16.7
Ieri h: 21:20 nuvoloso Nuvoloso 20 5 37 1023 10 N/NE 18.5
Ieri h: 20:50 nuvoloso Nuvoloso 20 4 34 1023 10 N/NE 18.5
Ieri h: 20:20 molto_nuvoloso Molto Nuvoloso 21 4 32 1022 10 N/NE 16.7
Ieri h: 19:50 molto_nuvoloso Molto Nuvoloso 19 5 39 1022 10 N 7.4
Ieri h: 19:20 molto_nuvoloso Molto Nuvoloso 19 7 45 1022 10 O/SO 13
Ieri h: 18:50 molto_nuvoloso Molto Nuvoloso 19 7 45 1022 10 O/SO 14.8
Ieri h: 18:20 molto_nuvoloso Molto Nuvoloso 19 8 48 1022 10 O/SO 13
Ieri h: 17:50 molto_nuvoloso Molto Nuvoloso 20 5 37 1022 10 O 11.1
Ieri h: 17:20 nuvoloso Nuvoloso 19 9 52 1022 10 N 11.1
Ieri h: 16:50 nuvoloso Nuvoloso 19 8 48 1022 10 N 11.1